Time;durP1;ratioP1;P1;durP2;ratioP2;P2;SDS_P1;SDS_P2;PMS_P1;PMS_P2;Temp;Humidity;BMP_temperature;BMP_pressure;BME280_temperature;BME280_humidity;BME280_pressure;Samples;Min_cycle;Max_cycle;Signal;HPM_P1;HPM_P2
2023/06/03 00:00:10;;;;;;;16.67;13.50;;;;;;;20.32;71.65;99043.63;5032548;28;20633;-71
2023/06/03 00:02:37;;;;;;;20.67;15.37;;;;;;;20.26;71.70;99052.81;5032793;28;20204;-71
2023/06/03 00:05:04;;;;;;;21.60;15.63;;;;;;;20.22;71.53;99049.81;5032507;28;20205;-70
2023/06/03 00:07:31;;;;;;;16.83;14.67;;;;;;;20.27;71.51;99057.13;5049019;28;20192;-69
2023/06/03 00:09:58;;;;;;;21.43;14.73;;;;;;;20.33;71.54;99054.16;5052055;28;20192;-70
2023/06/03 00:12:24;;;;;;;13.47;12.00;;;;;;;20.28;71.22;99047.94;5052035;28;20823;-69
2023/06/03 00:14:52;;;;;;;11.87;10.67;;;;;;;20.18;70.98;99059.53;5052452;28;20220;-69
2023/06/03 00:17:21;;;;;;;11.70;10.40;;;;;;;20.08;70.60;99069.44;5036398;28;20193;-69
2023/06/03 00:19:48;;;;;;;12.13;10.13;;;;;;;20.01;70.80;99075.09;5032291;28;20687;-70
2023/06/03 00:22:15;;;;;;;10.57;9.63;;;;;;;19.98;70.91;99072.16;5032042;28;20617;-70
2023/06/03 00:24:42;;;;;;;10.23;9.33;;;;;;;19.90;71.32;99078.06;5032192;28;20731;-70
2023/06/03 00:27:08;;;;;;;11.17;10.07;;;;;;;19.91;71.64;99075.09;5045109;28;20197;-70
2023/06/03 00:29:35;;;;;;;14.80;9.37;;;;;;;19.93;71.66;99082.94;5051953;28;20195;-70
2023/06/03 00:32:03;;;;;;;10.27;9.30;;;;;;;19.84;71.10;99081.78;5051932;28;20664;-70
2023/06/03 00:34:30;;;;;;;10.87;8.70;;;;;;;19.79;71.43;99088.00;5051507;28;20213;-70
2023/06/03 00:36:57;;;;;;;8.77;7.97;;;;;;;19.89;71.00;99090.72;5039969;28;20283;-70
2023/06/03 00:39:23;;;;;;;8.60;7.90;;;;;;;19.96;69.80;99098.56;5032599;28;20562;-70
2023/06/03 00:41:50;;;;;;;8.17;7.37;;;;;;;19.97;69.02;99094.81;5031510;28;20723;-70
2023/06/03 00:44:17;;;;;;;9.57;6.60;;;;;;;19.95;69.22;99099.63;5031532;28;20718;-70
2023/06/03 00:46:44;;;;;;;6.97;6.37;;;;;;;19.96;68.15;99098.56;5040520;28;20621;-70
2023/06/03 00:49:12;;;;;;;6.80;6.10;;;;;;;19.91;68.29;99103.94;5051338;28;20256;-70
2023/06/03 00:51:38;;;;;;;6.40;5.80;;;;;;;19.85;67.94;99096.91;5051795;28;20242;-70
2023/06/03 00:54:05;;;;;;;6.20;5.70;;;;;;;19.80;68.02;99096.88;5051867;28;20222;-69
2023/06/03 00:56:42;;;;;;;6.47;5.93;;;;;;;19.72;69.44;99097.38;5043898;28;20287;-70
2023/06/03 00:59:09;;;;;;;6.70;6.03;;;;;;;19.64;69.32;99095.25;5031424;28;20189;-70
2023/06/03 01:01:35;;;;;;;7.27;5.23;;;;;;;19.55;69.54;99088.72;5031825;28;20197;-69
2023/06/03 01:04:02;;;;;;;5.37;4.77;;;;;;;19.57;69.62;99089.28;5032101;28;20284;-70
2023/06/03 01:06:45;;;;;;;8.20;4.73;;;;;;;19.45;68.91;99086.78;5051335;28;20202;-69
2023/06/03 01:09:20;;;;;;;5.40;5.00;;;;;;;19.38;69.40;99085.41;5051680;28;20185;-69
2023/06/03 01:11:57;;;;;;;5.33;4.83;;;;;;;19.27;69.62;99072.94;5051812;28;20270;-69
2023/06/03 01:14:31;;;;;;;6.10;4.97;;;;;;;19.22;70.20;99080.97;5033536;28;20185;-71
2023/06/03 01:16:59;;;;;;;5.53;5.00;;;;;;;19.01;70.52;99081.94;5031876;28;20246;-70
2023/06/03 01:19:36;;;;;;;5.67;5.13;;;;;;;18.99;70.84;99078.72;5031913;28;20200;-70
2023/06/03 01:22:08;;;;;;;5.23;4.83;;;;;;;18.99;71.22;99084.88;5031973;28;20195;-70
2023/06/03 01:24:37;;;;;;;5.40;4.90;;;;;;;18.99;71.22;99079.50;5049472;28;20188;-70
2023/06/03 01:27:04;;;;;;;10.30;4.97;;;;;;;18.99;71.11;99070.63;5051621;28;20205;-70
2023/06/03 01:29:31;;;;;;;5.20;4.80;;;;;;;18.95;71.23;99059.56;5051189;28;20683;-70
2023/06/03 01:32:00;;;;;;;5.87;5.37;;;;;;;19.02;71.31;99067.41;5051596;28;20203;-69
2023/06/03 01:34:27;;;;;;;5.37;4.83;;;;;;;18.95;71.71;99069.53;5033695;28;20665;-70
2023/06/03 01:36:56;;;;;;;5.60;5.17;;;;;;;18.91;71.51;99057.66;5031598;28;20782;-70
2023/06/03 01:39:23;;;;;;;5.90;5.60;;;;;;;18.90;71.58;99064.09;5031656;28;20259;-69
2023/06/03 01:41:53;;;;;;;5.90;5.30;;;;;;;18.86;71.69;99066.50;5031502;28;20197;-69
2023/06/03 01:44:20;;;;;;;6.77;5.47;;;;;;;18.82;71.91;99065.41;5047271;28;20192;-69
2023/06/03 01:46:47;;;;;;;5.73;5.43;;;;;;;18.79;72.45;99062.44;5055345;28;20195;-69
2023/06/03 01:49:15;;;;;;;5.70;5.10;;;;;;;18.80;72.42;99061.34;5054891;28;20258;-69
2023/06/03 01:51:42;;;;;;;5.37;4.97;;;;;;;18.83;72.48;99050.09;5054871;28;20203;-70
2023/06/03 01:54:09;;;;;;;7.07;6.33;;;;;;;18.83;72.72;99040.09;5040474;28;20209;-70
2023/06/03 01:56:36;;;;;;;7.80;4.97;;;;;;;18.75;72.04;99024.44;5034896;28;20225;-70
2023/06/03 01:59:04;;;;;;;5.67;5.37;;;;;;;18.88;72.25;99042.03;5034789;28;20204;-70
2023/06/03 02:01:31;;;;;;;6.63;5.70;;;;;;;19.02;73.14;99052.06;5034850;28;20197;-70
2023/06/03 02:03:58;;;;;;;7.67;5.13;;;;;;;19.09;72.17;99055.34;5045272;28;20294;-70
2023/06/03 02:06:25;;;;;;;7.30;5.70;;;;;;;19.17;72.41;99056.72;5034992;28;20259;-70
2023/06/03 02:08:51;;;;;;;6.13;5.27;;;;;;;19.26;72.25;99050.63;5035014;28;20201;-70
2023/06/03 02:11:18;;;;;;;9.33;5.07;;;;;;;19.33;71.85;99061.16;5034635;28;20275;-70
2023/06/03 02:13:45;;;;;;;8.33;5.80;;;;;;;19.38;72.49;99061.16;5043867;28;20246;-70
2023/06/03 02:16:13;;;;;;;8.77;5.87;;;;;;;19.45;71.99;99064.44;5054462;28;20223;-69
2023/06/03 02:18:40;;;;;;;6.23;5.73;;;;;;;19.41;71.79;99044.47;5054577;28;20228;-69
2023/06/03 02:21:07;;;;;;;6.97;5.67;;;;;;;19.52;71.05;99067.69;5054724;28;20245;-69
2023/06/03 02:23:35;;;;;;;12.20;5.93;;;;;;;19.53;71.38;99077.41;5045784;28;20631;-69
2023/06/03 02:26:02;;;;;;;6.97;5.80;;;;;;;19.57;71.59;99073.09;5034686;28;20267;-69
2023/06/03 02:28:29;;;;;;;7.43;6.57;;;;;;;19.58;71.61;99074.72;5034899;28;20287;-70
2023/06/03 02:30:56;;;;;;;6.83;6.23;;;;;;;19.61;71.17;99080.38;5034343;28;20201;-71
2023/06/03 02:33:24;;;;;;;6.43;5.90;;;;;;;19.65;71.40;99080.69;5038153;28;20628;-70
2023/06/03 02:35:51;;;;;;;11.23;5.97;;;;;;;19.64;71.05;99073.69;5033972;28;20610;-70
2023/06/03 02:38:17;;;;;;;7.10;6.50;;;;;;;19.68;71.26;99086.34;5034400;28;20193;-71
2023/06/03 02:40:44;;;;;;;9.40;5.80;;;;;;;19.63;71.13;99082.81;5034357;28;20201;-70
2023/06/03 02:43:11;;;;;;;10.17;6.27;;;;;;;19.62;71.34;99086.59;5032853;28;20251;-70
2023/06/03 02:45:38;;;;;;;9.43;6.40;;;;;;;19.57;71.87;99081.19;5033633;28;20686;-70
2023/06/03 02:48:04;;;;;;;8.43;6.17;;;;;;;19.60;71.77;99092.25;5033276;28;20645;-71
2023/06/03 02:50:32;;;;;;;13.53;7.67;;;;;;;19.60;72.13;99088.75;5033380;28;20189;-71
2023/06/03 02:53:00;;;;;;;102.80;14.57;;;;;;;19.60;72.04;99088.75;5035083;28;20248;-71
2023/06/03 02:55:27;;;;;;;22.70;8.17;;;;;;;19.57;71.98;99091.97;5034973;28;20628;-71
2023/06/03 02:57:54;;;;;;;6.70;6.03;;;;;;;19.51;72.72;99090.31;5032988;28;20202;-71
2023/06/03 03:00:21;;;;;;;35.30;8.27;;;;;;;19.46;73.04;99087.59;5033173;28;20299;-71
2023/06/03 03:02:48;;;;;;;6.90;6.30;;;;;;;19.44;72.64;99093.25;5033544;28;20196;-71
2023/06/03 03:05:16;;;;;;;10.00;6.53;;;;;;;19.40;73.28;99089.44;5033931;28;20282;-71
2023/06/03 03:07:44;;;;;;;8.83;6.60;;;;;;;19.42;73.50;99103.50;5033282;28;20196;-71
2023/06/03 03:10:11;;;;;;;9.43;6.67;;;;;;;19.43;73.95;99098.88;5033396;28;20343;-70
2023/06/03 03:12:38;;;;;;;9.47;5.93;;;;;;;19.46;72.89;99098.38;5034364;28;20198;-70
2023/06/03 03:15:06;;;;;;;6.60;6.00;;;;;;;19.50;72.56;99096.78;5032954;28;20200;-70
2023/06/03 03:17:32;;;;;;;9.23;5.50;;;;;;;19.59;72.54;99098.72;5032750;28;20626;-70
2023/06/03 03:19:59;;;;;;;7.27;5.20;;;;;;;19.64;71.47;99106.81;5033185;28;20204;-71
2023/06/03 03:22:27;;;;;;;6.07;5.57;;;;;;;19.68;71.25;99110.59;5030255;28;20254;-70
2023/06/03 03:24:56;;;;;;;6.03;5.50;;;;;;;19.67;70.53;99111.69;5032736;28;20247;-70
2023/06/03 03:27:22;;;;;;;7.40;5.47;;;;;;;19.69;71.01;99114.13;5032404;28;20251;-70
2023/06/03 03:29:50;;;;;;;5.70;5.30;;;;;;;19.74;70.35;99114.13;5032906;28;20192;-70
2023/06/03 03:32:19;;;;;;;8.43;5.60;;;;;;;19.80;70.22;99126.53;5034605;28;20200;-70
2023/06/03 03:34:49;;;;;;;10.63;4.90;;;;;;;19.88;70.26;99123.31;5029790;28;20277;-71
2023/06/03 03:37:16;;;;;;;7.30;4.90;;;;;;;19.93;69.19;99131.44;5031828;28;20241;-71
2023/06/03 03:39:43;;;;;;;8.27;5.50;;;;;;;20.04;69.03;99127.69;5032575;28;20190;-70
2023/06/03 03:42:11;;;;;;;8.03;5.57;;;;;;;20.09;68.20;99119.63;5035588;28;20239;-70
2023/06/03 03:44:38;;;;;;;7.17;5.40;;;;;;;20.18;68.95;99137.72;5031212;28;20666;-70
2023/06/03 03:47:05;;;;;;;6.07;5.70;;;;;;;20.20;68.59;99134.78;5032188;28;20664;-70
2023/06/03 03:49:35;;;;;;;6.43;4.93;;;;;;;20.03;68.42;99148.47;5032386;28;20688;-70
2023/06/03 03:52:05;;;;;;;6.17;5.13;;;;;;;19.97;68.50;99146.81;5035186;28;20262;-70
2023/06/03 03:54:33;;;;;;;7.50;5.20;;;;;;;19.94;68.09;99149.25;5032538;28;20186;-70
2023/06/03 03:57:13;;;;;;;6.43;5.60;;;;;;;19.84;68.64;99138.41;5032176;28;20217;-70
2023/06/03 03:59:41;;;;;;;6.00;5.70;;;;;;;19.85;68.89;99145.44;5031351;28;20181;-70
2023/06/03 04:02:07;;;;;;;5.37;4.87;;;;;;;19.85;68.62;99146.22;5031286;28;20619;-71
2023/06/03 04:04:42;;;;;;;6.20;5.57;;;;;;;19.96;68.71;99141.69;5031874;28;20264;-72
2023/06/03 04:07:10;;;;;;;5.23;4.93;;;;;;;20.18;67.88;99145.03;5029818;28;20601;-71
2023/06/03 04:09:38;;;;;;;5.70;5.17;;;;;;;20.30;67.02;99137.50;5032108;28;20260;-71
2023/06/03 04:12:11;;;;;;;5.77;5.37;;;;;;;20.34;67.34;99135.91;5032732;28;20568;-71
2023/06/03 04:14:51;;;;;;;7.00;5.47;;;;;;;20.52;67.60;99136.19;5031876;28;20181;-71
2023/06/03 04:17:21;;;;;;;7.23;5.37;;;;;;;20.70;66.73;99148.31;5030993;28;20205;-72
2023/06/03 04:19:48;;;;;;;7.40;6.00;;;;;;;20.95;65.77;99151.06;5029503;28;20197;-70
2023/06/03 04:22:21;;;;;;;8.60;5.60;;;;;;;21.16;65.32;99151.84;5031663;28;20284;-71
2023/06/03 04:24:54;;;;;;;6.20;5.60;;;;;;;21.34;64.16;99153.97;5032039;28;20254;-72
2023/06/03 04:27:21;;;;;;;18.60;6.60;;;;;;;21.52;64.62;99162.31;5031740;28;20627;-71
2023/06/03 04:29:49;;;;;;;4.93;4.63;;;;;;;21.71;63.01;99165.25;5031811;28;20194;-72
2023/06/03 04:32:15;;;;;;;9.43;5.97;;;;;;;21.82;62.15;99151.44;5033540;28;20243;-70
2023/06/03 04:34:50;;;;;;;6.60;5.30;;;;;;;22.03;61.75;99158.38;5031589;28;20572;-70
2023/06/03 04:37:16;;;;;;;6.77;5.57;;;;;;;22.18;61.13;99166.41;5029387;28;20231;-71
2023/06/03 04:39:43;;;;;;;5.87;5.30;;;;;;;22.48;60.75;99160.03;5031282;28;20193;-71
2023/06/03 04:42:12;;;;;;;5.80;5.37;;;;;;;22.77;59.76;99164.41;5032159;28;20186;-71
2023/06/03 04:44:39;;;;;;;10.07;5.53;;;;;;;22.99;58.77;99163.97;5032429;28;20193;-71
2023/06/03 04:47:10;;;;;;;9.80;5.97;;;;;;;23.20;58.15;99160.03;5032214;28;20288;-72
2023/06/03 04:49:38;;;;;;;13.80;5.30;;;;;;;23.39;57.82;99164.41;5031617;28;20664;-71
2023/06/03 04:52:09;;;;;;;6.07;5.50;;;;;;;23.63;57.32;99159.00;5044388;28;20193;-71
2023/06/03 04:54:36;;;;;;;8.30;5.70;;;;;;;23.93;56.07;99161.41;5051973;28;20205;-71
2023/06/03 04:57:03;;;;;;;6.17;5.67;;;;;;;24.22;54.72;99154.75;5051235;28;20232;-71
2023/06/03 04:59:30;;;;;;;11.97;6.23;;;;;;;24.39;54.47;99155.03;5051580;28;20198;-71
2023/06/03 05:01:56;;;;;;;10.20;5.87;;;;;;;24.54;54.89;99157.56;5039449;28;20198;-72
2023/06/03 05:04:29;;;;;;;9.63;5.30;;;;;;;24.99;53.30;99156.03;5030857;28;20676;-72
2023/06/03 05:06:56;;;;;;;7.23;5.03;;;;;;;25.29;51.52;99163.72;5031370;28;20223;-71
2023/06/03 05:09:23;;;;;;;5.33;5.03;;;;;;;25.58;49.72;99160.72;5030471;28;20566;-72
2023/06/03 05:11:51;;;;;;;6.00;5.40;;;;;;;25.83;48.44;99162.94;5041014;28;20191;-72
2023/06/03 05:14:18;;;;;;;7.70;4.77;;;;;;;25.95;48.29;99172.25;5050508;28;20200;-71
2023/06/03 05:16:44;;;;;;;10.47;5.87;;;;;;;26.10;47.81;99168.41;5051369;28;20224;-67
2023/06/03 05:19:11;;;;;;;6.83;5.43;;;;;;;26.32;47.64;99165.72;5051949;28;20204;-67
2023/06/03 05:21:39;;;;;;;9.50;5.60;;;;;;;26.83;48.97;99177.09;5042700;28;20267;-66
2023/06/03 05:24:06;;;;;;;5.03;4.67;;;;;;;27.36;46.01;99186.94;5035007;28;20189;-67
2023/06/03 05:26:33;;;;;;;6.97;6.37;;;;;;;27.44;46.41;99182.66;5035218;28;20205;-67
2023/06/03 05:29:00;;;;;;;10.73;6.87;;;;;;;27.70;46.04;99183.59;5034651;28;20259;-67
2023/06/03 05:31:26;;;;;;;8.80;6.03;;;;;;;28.34;45.38;99180.91;5039412;28;20242;-67
2023/06/03 05:33:53;;;;;;;8.30;5.60;;;;;;;28.90;42.20;99182.72;5055094;28;20580;-68
2023/06/03 05:36:20;;;;;;;6.13;5.47;;;;;;;29.17;42.40;99179.66;5054963;28;20224;-67
2023/06/03 05:38:48;;;;;;;8.47;5.47;;;;;;;29.27;42.36;99178.53;5054857;28;20193;-68
2023/06/03 05:41:15;;;;;;;10.50;5.40;;;;;;;29.56;41.63;99168.44;5050720;28;20193;-67
2023/06/03 05:43:42;;;;;;;5.80;5.50;;;;;;;29.35;42.27;99175.75;5034741;28;20232;-68
2023/06/03 05:46:08;;;;;;;7.33;5.73;;;;;;;29.18;42.02;99179.34;5034379;28;20625;-72
2023/06/03 05:48:35;;;;;;;5.87;5.07;;;;;;;28.98;42.39;99166.31;5033937;28;20201;-70
2023/06/03 05:51:02;;;;;;;6.27;5.77;;;;;;;28.88;42.28;99180.28;5034705;28;20197;-73
2023/06/03 05:53:29;;;;;;;31.53;17.23;;;;;;;28.78;42.91;99177.91;5034411;28;20198;-69
2023/06/03 05:55:57;;;;;;;32.30;14.37;;;;;;;28.82;42.60;99169.84;5035165;28;20185;-69
2023/06/03 05:58:24;;;;;;;17.73;6.33;;;;;;;28.68;42.75;99158.28;5035161;28;20193;-70
2023/06/03 06:00:52;;;;;;;6.50;5.77;;;;;;;28.50;42.59;99175.81;5048298;28;20269;-69
2023/06/03 06:03:19;;;;;;;11.83;8.30;;;;;;;28.30;43.75;99168.22;5054807;28;20205;-68
2023/06/03 06:05:47;;;;;;;13.00;5.43;;;;;;;28.10;43.50;99168.81;5038804;28;20205;-69
2023/06/03 06:08:13;;;;;;;6.00;4.53;;;;;;;28.05;41.83;99168.97;5033230;28;20669;-70
2023/06/03 06:10:40;;;;;;;5.33;4.53;;;;;;;28.13;41.78;99168.19;5036422;28;20242;-71
2023/06/03 06:13:08;;;;;;;8.07;4.63;;;;;;;28.17;41.65;99169.16;5053985;28;20262;-70
2023/06/03 06:15:35;;;;;;;9.10;4.53;;;;;;;28.23;42.36;99162.41;5054316;28;20559;-72
2023/06/03 06:18:02;;;;;;;6.60;4.57;;;;;;;28.10;39.88;99177.00;5052930;28;20225;-69
2023/06/03 06:20:28;;;;;;;6.63;4.60;;;;;;;27.94;41.28;99175.84;5043640;28;20197;-70
2023/06/03 06:22:55;;;;;;;5.27;4.53;;;;;;;27.88;40.97;99182.53;5031739;28;20568;-71
2023/06/03 06:25:22;;;;;;;35.00;6.77;;;;;;;27.98;41.43;99174.06;5033275;28;20262;-69
2023/06/03 06:27:49;;;;;;;4.17;3.97;;;;;;;27.96;41.79;99179.03;5034182;28;20263;-69
2023/06/03 06:30:18;;;;;;;6.33;4.50;;;;;;;28.31;41.89;99170.63;5033843;28;20205;-70
2023/06/03 06:32:49;;;;;;;6.70;5.20;;;;;;;28.87;39.94;99172.44;5033302;28;20201;-70
2023/06/03 06:35:17;;;;;;;4.47;4.17;;;;;;;29.23;38.83;99174.81;5034011;28;20196;-69
2023/06/03 06:37:43;;;;;;;5.30;4.80;;;;;;;29.47;38.95;99169.63;5034523;28;20310;-73
2023/06/03 06:40:16;;;;;;;7.37;4.37;;;;;;;29.67;38.66;99175.19;5014454;28;20268;-70
2023/06/03 06:42:43;;;;;;;5.90;4.30;;;;;;;29.85;37.81;99181.41;5014253;28;20186;-75
2023/06/03 06:45:16;;;;;;;4.60;4.20;;;;;;;30.04;38.59;99179.84;5014378;28;20295;-72
2023/06/03 06:47:44;;;;;;;4.83;4.30;;;;;;;30.11;37.38;99182.88;5014072;28;20724;-73
2023/06/03 06:50:35;;;;;;;9.27;4.33;;;;;;;30.06;38.50;99172.13;5053403;28;20243;-73
2023/06/03 06:53:04;;;;;;;12.10;4.40;;;;;;;30.36;37.64;99176.44;5053838;28;20199;-72
2023/06/03 06:55:42;;;;;;;7.53;4.47;;;;;;;30.57;37.51;99182.75;5047948;28;20284;-70
2023/06/03 06:58:10;;;;;;;4.80;4.40;;;;;;;30.75;36.33;99184.25;5035467;28;20634;-70
2023/06/03 07:00:37;;;;;;;6.90;4.03;;;;;;;30.83;36.34;99186.09;5054100;28;20299;-69
2023/06/03 07:03:06;;;;;;;7.27;4.10;;;;;;;30.82;36.59;99179.03;5053519;28;20192;-71
2023/06/03 07:05:33;;;;;;;4.53;4.10;;;;;;;30.42;36.30;99182.56;5039264;28;20750;-70
2023/06/03 07:08:00;;;;;;;6.87;4.50;;;;;;;30.56;37.05;99175.66;5033456;28;20259;-74
2023/06/03 07:10:27;;;;;;;5.77;4.10;;;;;;;30.74;37.17;99177.16;5046718;28;20250;-71
2023/06/03 07:12:55;;;;;;;11.03;4.67;;;;;;;30.96;36.14;99187.78;5053535;28;20263;-72
2023/06/03 07:15:22;;;;;;;7.27;4.50;;;;;;;31.16;35.23;99194.38;5053498;28;20295;-71
2023/06/03 07:17:50;;;;;;;11.97;5.70;;;;;;;30.85;35.48;99194.81;5052458;28;20722;-72
2023/06/03 07:20:21;;;;;;;6.00;4.37;;;;;;;30.85;36.53;99191.25;5041283;28;20189;-72
2023/06/03 07:22:48;;;;;;;9.03;4.77;;;;;;;31.12;36.50;99185.22;5033157;28;20653;-73
2023/06/03 07:25:34;;;;;;;20.07;4.73;;;;;;;31.38;35.85;99194.81;5033270;28;20290;-73
2023/06/03 07:28:03;;;;;;;11.67;4.47;;;;;;;31.33;35.92;99208.75;5032721;28;20185;-72
2023/06/03 07:30:29;;;;;;;6.70;4.70;;;;;;;31.29;36.50;99202.34;5044400;28;20201;-70
2023/06/03 07:32:59;;;;;;;12.07;4.77;;;;;;;31.44;35.45;99200.91;5032596;28;20247;-71
2023/06/03 07:35:27;;;;;;;5.40;4.97;;;;;;;31.65;35.29;99205.16;5032912;28;20687;-71
2023/06/03 07:37:54;;;;;;;5.50;4.47;;;;;;;31.81;35.25;99200.63;5032709;28;20220;-70
2023/06/03 07:40:29;;;;;;;7.03;4.27;;;;;;;32.05;34.74;99208.88;5032742;28;20632;-71
2023/06/03 07:42:56;;;;;;;4.60;4.30;;;;;;;32.14;33.26;99203.28;5032342;28;20193;-70
2023/06/03 07:45:26;;;;;;;4.77;4.37;;;;;;;31.96;34.60;99202.72;5032597;28;20342;-69
2023/06/03 07:47:54;;;;;;;6.87;5.03;;;;;;;31.58;33.99;99198.63;5031437;28;20711;-70
2023/06/03 07:50:23;;;;;;;8.27;5.00;;;;;;;31.71;34.64;99203.81;5012636;28;20257;-69
2023/06/03 07:53:00;;;;;;;9.23;4.63;;;;;;;31.94;34.06;99204.19;5012424;28;20764;-67
2023/06/03 07:55:27;;;;;;;16.07;4.63;;;;;;;31.99;33.82;99196.53;5012805;28;20186;-69
2023/06/03 07:57:53;;;;;;;5.57;4.70;;;;;;;31.15;34.82;99196.31;5028687;28;20319;-71
2023/06/03 08:00:20;;;;;;;5.00;4.57;;;;;;;31.61;33.92;99195.97;5032161;28;20193;-68
2023/06/03 08:02:47;;;;;;;5.10;4.70;;;;;;;31.54;34.13;99203.19;5033597;28;20259;-69
2023/06/03 08:05:15;;;;;;;21.50;5.87;;;;;;;31.83;34.46;99192.03;5032488;28;20263;-69
2023/06/03 08:07:45;;;;;;;12.17;5.10;;;;;;;31.99;33.68;99199.28;5032226;28;20197;-70
2023/06/03 08:10:24;;;;;;;6.47;4.63;;;;;;;32.10;33.53;99200.41;5032138;28;20195;-69
2023/06/03 08:12:50;;;;;;;6.47;4.50;;;;;;;32.20;33.70;99186.22;5035045;28;20181;-69
2023/06/03 08:15:31;;;;;;;6.30;4.57;;;;;;;32.56;32.38;99188.94;5052310;28;20192;-69
2023/06/03 08:17:58;;;;;;;5.07;4.53;;;;;;;32.84;32.87;99189.00;5051719;28;20295;-69
2023/06/03 08:20:26;;;;;;;5.10;4.60;;;;;;;33.05;32.59;99175.81;5051785;28;20254;-70
2023/06/03 08:22:54;;;;;;;5.57;4.70;;;;;;;33.33;31.92;99180.16;5049224;28;20197;-68
2023/06/03 08:25:22;;;;;;;8.70;4.67;;;;;;;33.37;31.68;99179.47;5031703;28;20695;-69
2023/06/03 08:27:50;;;;;;;8.07;4.30;;;;;;;33.21;31.19;99188.50;5032127;28;20259;-70
2023/06/03 08:30:18;;;;;;;5.47;4.32;;;;;;;33.19;31.26;99185.28;5032248;28;20201;-70
2023/06/03 08:32:45;;;;;;;7.23;4.80;;;;;;;32.32;31.91;99177.97;5045279;28;20605;-70
2023/06/03 08:35:13;;;;;;;5.13;4.33;;;;;;;32.40;31.95;99179.81;5051683;28;20247;-69
2023/06/03 08:37:40;;;;;;;4.87;4.23;;;;;;;32.58;32.07;99175.63;5052020;28;20290;-70
2023/06/03 08:40:09;;;;;;;5.40;4.53;;;;;;;32.67;32.21;99178.25;5052001;28;20192;-69
2023/06/03 08:42:42;;;;;;;4.67;4.20;;;;;;;32.84;32.16;99178.78;5040654;28;20201;-70
2023/06/03 08:45:10;;;;;;;14.43;5.10;;;;;;;32.73;32.01;99179.59;5031871;28;20280;-69
2023/06/03 08:47:47;;;;;;;4.97;4.47;;;;;;;32.77;32.50;99172.25;5030991;28;20205;-70
2023/06/03 08:50:17;;;;;;;6.00;4.60;;;;;;;32.85;31.90;99174.06;5031035;28;20243;-69
2023/06/03 08:52:46;;;;;;;5.80;4.27;;;;;;;32.95;31.50;99179.88;5041999;28;20273;-70
2023/06/03 08:55:15;;;;;;;4.60;4.00;;;;;;;32.86;31.42;99181.97;5050348;28;20284;-71
2023/06/03 08:57:49;;;;;;;8.37;4.43;;;;;;;32.63;32.13;99188.34;5050622;28;20299;-70
2023/06/03 09:00:21;;;;;;;5.72;4.22;;;;;;;32.59;31.86;99182.72;5051073;28;20563;-72
2023/06/03 09:02:49;;;;;;;5.23;4.67;;;;;;;32.59;31.25;99184.69;5040574;28;20185;-82
2023/06/03 09:05:16;;;;;;;5.33;4.70;;;;;;;32.31;32.19;99187.38;5030839;28;20197;-84
2023/06/03 09:07:45;;;;;;;4.77;4.33;;;;;;;32.00;32.08;99187.13;5031057;28;20197;-79
2023/06/03 09:10:13;;;;;;;5.17;4.27;;;;;;;31.85;33.12;99190.56;5030990;28;20189;-79
2023/06/03 09:12:40;;;;;;;6.13;4.57;;;;;;;31.67;36.03;99182.84;5039024;28;20201;-75
2023/06/03 09:15:14;;;;;;;4.93;4.07;;;;;;;31.68;35.59;99177.00;5051292;28;20195;-83
2023/06/03 09:17:41;;;;;;;5.40;4.47;;;;;;;30.73;33.62;99180.22;5050678;28;20649;-80
2023/06/03 09:20:09;;;;;;;5.03;4.50;;;;;;;30.76;33.58;99180.38;5051225;28;20224;-80
2023/06/03 09:22:37;;;;;;;6.27;4.80;;;;;;;30.76;33.96;99188.59;5042828;28;20617;-80
2023/06/03 09:25:05;;;;;;;6.90;4.33;;;;;;;30.16;34.03;99182.72;5030961;28;20201;-79
2023/06/03 09:27:32;;;;;;;8.43;4.27;;;;;;;30.35;34.69;99174.84;5031330;28;20347;-77
2023/06/03 09:29:59;;;;;;;7.03;4.30;;;;;;;30.55;35.92;99176.81;5030004;28;20620;-77
2023/06/03 09:32:27;;;;;;;4.73;4.33;;;;;;;30.77;37.29;99176.50;5031281;28;20612;-83
2023/06/03 09:34:55;;;;;;;5.57;5.07;;;;;;;30.97;36.37;99181.16;5031390;28;20201;-81
2023/06/03 09:37:22;;;;;;;5.27;4.60;;;;;;;31.08;34.61;99185.09;5031178;28;20284;-81
2023/06/03 09:39:49;;;;;;;5.10;4.70;;;;;;;30.76;34.63;99183.13;5031042;28;20251;-77
2023/06/03 09:42:16;;;;;;;6.17;5.60;;;;;;;30.56;35.93;99175.66;5031442;28;20228;-81
2023/06/03 09:44:45;;;;;;;5.37;4.97;;;;;;;30.35;37.47;99172.13;5031299;28;20197;-76
2023/06/03 09:47:13;;;;;;;5.30;4.87;;;;;;;30.32;36.66;99186.47;5030735;28;20666;-78
2023/06/03 09:50:01;;;;;;;5.77;5.37;;;;;;;30.40;36.45;99187.53;5030578;28;20201;-79
2023/06/03 09:52:32;;;;;;;5.53;5.10;;;;;;;30.43;36.54;99187.72;5030885;28;20212;-79
2023/06/03 09:55:01;;;;;;;6.43;5.57;;;;;;;29.98;37.06;99181.19;5030395;28;20662;-76
2023/06/03 09:57:28;;;;;;;10.40;5.20;;;;;;;29.98;37.10;99186.66;5030716;28;20637;-76
2023/06/03 10:00:07;;;;;;;4.93;4.53;;;;;;;30.19;36.20;99186.72;5030389;28;20220;-77
2023/06/03 10:02:35;;;;;;;4.70;4.50;;;;;;;30.42;36.43;99188.81;5030546;28;20197;-80
2023/06/03 10:05:03;;;;;;;6.67;4.23;;;;;;;30.56;36.00;99199.53;5031291;28;20205;-78
2023/06/03 10:07:30;;;;;;;5.70;4.60;;;;;;;30.81;35.99;99188.41;5034787;28;20692;-79
2023/06/03 10:10:04;;;;;;;8.30;5.43;;;;;;;31.12;35.70;99197.00;5046772;28;20276;-80
2023/06/03 10:12:33;;;;;;;6.37;4.87;;;;;;;31.33;35.59;99189.53;5055096;28;20227;-80
2023/06/03 10:15:00;;;;;;;5.47;5.00;;;;;;;31.54;35.69;99195.78;5054266;28;20197;-78
2023/06/03 10:17:28;;;;;;;4.90;4.30;;;;;;;31.73;34.64;99198.75;5053944;28;20220;-77
2023/06/03 10:19:55;;;;;;;6.97;4.37;;;;;;;31.77;33.65;99199.72;5040060;28;20193;-78
2023/06/03 10:22:26;;;;;;;4.20;3.83;;;;;;;31.77;34.18;99199.72;5034156;28;20255;-76
2023/06/03 10:24:56;;;;;;;8.20;4.73;;;;;;;31.90;33.51;99195.84;5034001;28;20288;-77
2023/06/03 10:27:22;;;;;;;5.83;5.03;;;;;;;32.11;32.86;99204.78;5034232;28;20203;-79
2023/06/03 10:29:53;;;;;;;4.33;4.00;;;;;;;32.28;33.08;99201.78;5034715;28;20558;-75
2023/06/03 10:32:22;;;;;;;5.63;4.37;;;;;;;32.35;33.23;99199.28;5034308;28;20215;-75
2023/06/03 10:34:50;;;;;;;4.70;4.30;;;;;;;32.43;33.40;99190.13;5034445;28;20205;-75
2023/06/03 10:37:17;;;;;;;4.77;4.37;;;;;;;32.13;31.79;99202.47;5033832;28;20251;-76
2023/06/03 10:39:45;;;;;;;4.37;4.07;;;;;;;31.71;33.09;99201.06;5023820;28;20247;-76
2023/06/03 10:42:13;;;;;;;4.93;4.50;;;;;;;31.75;32.56;99201.97;5031320;28;20683;-78
2023/06/03 10:44:40;;;;;;;4.53;4.23;;;;;;;31.55;32.73;99197.38;5030490;28;20200;-77
2023/06/03 10:47:12;;;;;;;4.40;4.10;;;;;;;31.62;32.41;99202.28;5032855;28;20673;-77
2023/06/03 10:49:42;;;;;;;4.43;4.13;;;;;;;31.64;32.54;99198.06;5033939;28;20584;-75
2023/06/03 10:52:27;;;;;;;4.13;3.73;;;;;;;31.64;32.29;99189.03;5032279;28;20198;-75
2023/06/03 10:55:07;;;;;;;4.17;3.87;;;;;;;31.51;32.75;99185.47;5033996;28;20247;-73
2023/06/03 10:57:38;;;;;;;3.93;3.70;;;;;;;31.53;32.98;99182.38;5034207;28;20209;-74
2023/06/03 11:00:06;;;;;;;5.90;3.83;;;;;;;31.55;33.75;99182.81;5033807;28;20197;-76
2023/06/03 11:03:04;;;;;;;4.53;4.27;;;;;;;31.51;35.00;99184.63;5033658;28;20202;-76
2023/06/03 11:05:31;;;;;;;4.80;4.40;;;;;;;31.33;35.46;99180.50;5033710;28;20221;-75
2023/06/03 11:07:58;;;;;;;4.70;4.40;;;;;;;31.37;35.21;99182.22;5033865;28;20189;-77
2023/06/03 11:10:44;;;;;;;8.27;4.50;;;;;;;31.46;35.50;99176.63;5034624;28;20198;-74
2023/06/03 11:13:32;;;;;;;3.90;3.70;;;;;;;31.44;36.09;99173.44;5030997;28;20583;-76
2023/06/03 11:15:59;;;;;;;4.73;4.33;;;;;;;31.52;36.10;99181.56;5008355;28;20870;-75
2023/06/03 11:18:26;;;;;;;4.70;4.37;;;;;;;31.44;35.53;99179.72;5032510;28;20279;-75
2023/06/03 11:20:53;;;;;;;4.13;3.73;;;;;;;31.11;36.80;99187.13;5050492;28;20680;-75
2023/06/03 11:23:44;;;;;;;4.00;3.73;;;;;;;31.16;36.47;99177.91;5053468;28;20196;-76
2023/06/03 11:26:35;;;;;;;4.20;3.80;;;;;;;31.16;36.85;99184.22;5051953;28;20652;-77
2023/06/03 11:29:04;;;;;;;4.30;4.00;;;;;;;31.07;36.36;99185.44;5050774;28;20203;-77
2023/06/03 11:31:32;;;;;;;3.43;3.23;;;;;;;30.97;36.44;99186.63;5033312;28;20247;-76
2023/06/03 11:34:28;;;;;;;3.97;3.57;;;;;;;30.95;37.19;99185.38;5033360;28;20189;-76
2023/06/03 11:36:57;;;;;;;3.80;3.60;;;;;;;31.02;36.63;99186.44;4991488;28;20234;-75
2023/06/03 11:39:24;;;;;;;4.07;3.77;;;;;;;31.15;37.06;99187.28;5041684;28;20654;-75